createdAt,value
2023-08-13T00:00:09.074Z,97468.91
2023-08-13T00:02:37.107Z,97459.78
2023-08-13T00:05:06.061Z,97459.78
2023-08-13T00:07:35.134Z,97467.91
2023-08-13T00:10:03.512Z,97482.78
2023-08-13T00:12:31.116Z,97490.25
2023-08-13T00:14:58.726Z,97490.78
2023-08-13T00:17:27.445Z,97487.63
2023-08-13T00:19:55.172Z,97483.13
2023-08-13T00:22:23.424Z,97488.16
2023-08-13T00:24:55.260Z,97495.78
2023-08-13T00:27:24.341Z,97503.81
2023-08-13T00:29:52.047Z,97512.06
2023-08-13T00:32:19.724Z,97492.25
2023-08-13T00:34:47.526Z,97501.50
2023-08-13T00:37:15.275Z,97519.38
2023-08-13T00:39:42.970Z,97514.03
2023-08-13T00:42:12.369Z,97510.56
2023-08-13T00:44:40.397Z,97507.75
2023-08-13T00:47:09.856Z,97506.56
2023-08-13T00:49:37.629Z,97500.91
2023-08-13T00:52:05.494Z,97498.72
2023-08-13T00:54:33.242Z,97504.38
2023-08-13T00:57:00.884Z,97513.09
2023-08-13T00:59:29.989Z,97506.38
2023-08-13T01:01:58.046Z,97504.88
2023-08-13T01:04:25.785Z,97501.03
2023-08-13T01:06:57.537Z,97508.69
2023-08-13T01:09:27.443Z,97514.16
2023-08-13T01:11:55.498Z,97517.53
2023-08-13T01:14:25.829Z,97519.56
2023-08-13T01:16:54.940Z,97528.78
2023-08-13T01:19:22.875Z,97528.78
2023-08-13T01:21:50.699Z,97535.69
2023-08-13T01:24:19.681Z,97536.22
2023-08-13T01:26:49.679Z,97531.22
2023-08-13T01:29:18.813Z,97524.25
2023-08-13T01:31:47.405Z,97527.88
2023-08-13T01:34:16.431Z,97527.41
2023-08-13T01:36:44.296Z,97524.63
2023-08-13T01:39:12.780Z,97528.13
2023-08-13T01:41:46.830Z,97515.50
2023-08-13T01:44:15.350Z,97523.25
2023-08-13T01:46:43.058Z,97539.06
2023-08-13T01:49:10.750Z,97551.63
2023-08-13T01:51:38.396Z,97560.16
2023-08-13T01:54:06.617Z,97551.91
2023-08-13T01:56:34.338Z,97562.03
2023-08-13T01:59:03.492Z,97566.91
2023-08-13T02:01:31.354Z,97560.63
2023-08-13T02:03:59.169Z,97559.34
2023-08-13T02:06:26.887Z,97552.09
2023-08-13T02:08:54.614Z,97556.81
2023-08-13T02:11:22.348Z,97559.69
2023-08-13T02:13:50.783Z,97565.50
2023-08-13T02:16:19.892Z,97573.78
2023-08-13T02:18:47.614Z,97572.19
2023-08-13T02:21:19.904Z,97559.78
2023-08-13T02:23:47.578Z,97563.13
2023-08-13T02:26:15.887Z,97554.53
2023-08-13T02:28:46.647Z,97555.13
2023-08-13T02:31:14.383Z,97551.66
2023-08-13T02:33:44.142Z,97545.16
2023-08-13T02:36:11.830Z,97559.31
2023-08-13T02:38:39.542Z,97554.66
2023-08-13T02:41:07.268Z,97561.16
2023-08-13T02:43:35.418Z,97562.69
2023-08-13T02:46:03.195Z,97560.44
2023-08-13T02:48:30.918Z,97561.28
2023-08-13T02:51:00.150Z,97559.53
2023-08-13T02:53:27.800Z,97550.94
2023-08-13T02:55:55.468Z,97555.94
2023-08-13T02:58:23.300Z,97545.00
2023-08-13T03:00:51.153Z,97541.06
2023-08-13T03:03:18.993Z,97539.53
2023-08-13T03:05:46.777Z,97536.13
2023-08-13T03:08:15.760Z,97544.63
2023-08-13T03:10:43.595Z,97541.88
2023-08-13T03:13:11.333Z,97544.06
2023-08-13T03:15:39.208Z,97553.84
2023-08-13T03:18:08.183Z,97553.06
2023-08-13T03:20:39.285Z,97547.22
2023-08-13T03:23:08.270Z,97550.47
2023-08-13T03:25:37.884Z,97550.94
2023-08-13T03:28:06.685Z,97543.00
2023-08-13T03:30:34.389Z,97547.69
2023-08-13T03:33:02.092Z,97545.59
2023-08-13T03:35:30.030Z,97540.25
2023-08-13T03:37:57.829Z,97534.25
2023-08-13T03:40:26.589Z,97538.91
2023-08-13T03:42:55.612Z,97547.25
2023-08-13T03:45:23.371Z,97556.31
2023-08-13T03:47:51.172Z,97555.59
2023-08-13T03:50:19.186Z,97551.47
2023-08-13T03:52:46.946Z,97558.16
2023-08-13T03:55:15.566Z,97574.94
2023-08-13T03:57:43.282Z,97581.66
2023-08-13T04:00:12.900Z,97583.63
2023-08-13T04:02:45.041Z,97582.38
2023-08-13T04:05:12.881Z,97584.78
2023-08-13T04:07:40.735Z,97580.63
2023-08-13T04:10:09.519Z,97594.47
2023-08-13T04:12:37.186Z,97599.56
2023-08-13T04:15:05.102Z,97603.03
2023-08-13T04:17:34.852Z,97597.81
2023-08-13T04:20:03.282Z,97587.38
2023-08-13T04:22:30.900Z,97591.16
2023-08-13T04:24:59.230Z,97597.22
2023-08-13T04:27:27.108Z,97602.13
2023-08-13T04:29:55.128Z,97604.91
2023-08-13T04:32:22.751Z,97592.94
2023-08-13T04:34:51.896Z,97596.06
2023-08-13T04:37:19.956Z,97594.34
2023-08-13T04:39:48.105Z,97590.13
2023-08-13T04:42:15.969Z,97585.84
2023-08-13T04:44:44.046Z,97583.59
2023-08-13T04:47:11.797Z,97578.50
2023-08-13T04:49:40.814Z,97583.25
2023-08-13T04:52:09.979Z,97587.81
2023-08-13T04:54:37.991Z,97574.69
2023-08-13T04:57:06.008Z,97583.16
2023-08-13T04:59:34.072Z,97580.44
2023-08-13T05:02:02.492Z,97591.38
2023-08-13T05:04:31.059Z,97579.84
2023-08-13T05:06:59.012Z,97583.22
2023-08-13T05:09:28.703Z,97580.06
2023-08-13T05:11:58.360Z,97575.28
2023-08-13T05:14:26.373Z,97581.41
2023-08-13T05:16:56.075Z,97585.66
2023-08-13T05:19:24.923Z,97588.53
2023-08-13T05:21:54.383Z,97574.94
2023-08-13T05:24:24.924Z,97572.22
2023-08-13T05:26:54.310Z,97570.31
2023-08-13T05:29:22.168Z,97575.09
2023-08-13T05:31:54.812Z,97572.72
2023-08-13T05:34:25.104Z,97565.16
2023-08-13T05:36:54.276Z,97556.88
2023-08-13T05:39:25.079Z,97546.09
2023-08-13T05:41:56.143Z,97556.81
2023-08-13T05:44:23.987Z,97557.34
2023-08-13T05:46:52.227Z,97552.75
2023-08-13T05:49:20.058Z,97551.00
2023-08-13T05:51:49.412Z,97548.81
2023-08-13T05:54:17.537Z,97538.69
2023-08-13T05:56:45.234Z,97542.59
2023-08-13T05:59:14.368Z,97549.63
2023-08-13T06:01:42.260Z,97552.44
2023-08-13T06:04:09.937Z,97551.19
2023-08-13T06:06:37.875Z,97550.72
2023-08-13T06:09:06.776Z,97555.56
2023-08-13T06:11:34.555Z,97561.91
2023-08-13T06:14:02.503Z,97550.16
2023-08-13T06:16:32.256Z,97560.19
2023-08-13T06:19:00.552Z,97550.81
2023-08-13T06:21:33.322Z,97546.03
2023-08-13T06:24:01.034Z,97550.22
2023-08-13T06:26:28.851Z,97541.34
2023-08-13T06:28:56.746Z,97551.06
2023-08-13T06:31:41.508Z,97554.88
2023-08-13T06:34:11.692Z,97561.03
2023-08-13T06:36:40.551Z,97562.56
2023-08-13T06:39:08.242Z,97556.41
2023-08-13T06:41:36.011Z,97565.44
2023-08-13T06:44:07.118Z,97563.97
2023-08-13T06:46:37.949Z,97569.03
2023-08-13T06:49:05.805Z,97563.34
2023-08-13T06:51:34.930Z,97566.47
2023-08-13T06:54:02.604Z,97562.00
2023-08-13T06:56:31.449Z,97569.13
2023-08-13T06:58:59.229Z,97552.44
2023-08-13T07:01:26.942Z,97558.59
2023-08-13T07:03:54.634Z,97545.28
2023-08-13T07:06:22.526Z,97547.72
2023-08-13T07:08:51.962Z,97535.22
2023-08-13T07:11:19.765Z,97529.59
2023-08-13T07:13:47.443Z,97528.16
2023-08-13T07:16:16.315Z,97522.72
2023-08-13T07:18:44.097Z,97532.47
2023-08-13T07:21:12.566Z,97538.06
2023-08-13T07:23:41.642Z,97533.25
2023-08-13T07:26:11.075Z,97521.09
2023-08-13T07:28:43.412Z,97522.53
2023-08-13T07:31:11.118Z,97515.63
2023-08-13T07:33:38.837Z,97513.66
2023-08-13T07:36:07.101Z,97509.78
2023-08-13T07:38:38.134Z,97502.53
2023-08-13T07:41:10.405Z,97492.13
2023-08-13T07:43:41.004Z,97481.06
2023-08-13T07:46:08.874Z,97479.47
2023-08-13T07:48:36.636Z,97467.44
2023-08-13T07:51:04.260Z,97457.78
2023-08-13T07:53:32.785Z,97471.56
2023-08-13T07:56:00.528Z,97461.13
2023-08-13T07:58:29.549Z,97455.41
2023-08-13T08:01:02.506Z,97463.06
2023-08-13T08:03:30.260Z,97467.03
2023-08-13T08:05:58.017Z,97476.56
2023-08-13T08:08:25.746Z,97469.19
2023-08-13T08:10:53.552Z,97464.84
2023-08-13T08:13:21.298Z,97463.34
2023-08-13T08:15:52.518Z,97467.34
2023-08-13T08:18:20.291Z,97469.91
2023-08-13T08:20:48.052Z,97463.00
2023-08-13T08:23:15.726Z,97458.72
2023-08-13T08:25:43.519Z,97463.81
2023-08-13T08:28:12.352Z,97468.09
2023-08-13T08:30:41.576Z,97461.47
2023-08-13T08:33:10.949Z,97464.41
2023-08-13T08:35:38.672Z,97458.81
2023-08-13T08:38:06.386Z,97465.53
2023-08-13T08:40:34.235Z,97465.09
2023-08-13T08:43:01.888Z,97461.47
2023-08-13T08:45:29.829Z,97463.72
2023-08-13T08:47:57.639Z,97457.47
2023-08-13T08:50:27.397Z,97449.81
2023-08-13T08:52:55.569Z,97453.16
2023-08-13T08:55:23.412Z,97453.09
2023-08-13T08:57:51.260Z,97450.41
2023-08-13T09:00:18.970Z,97445.63
2023-08-13T09:02:46.728Z,97453.28
2023-08-13T09:05:16.046Z,97452.13
2023-08-13T09:07:45.590Z,97440.63
2023-08-13T09:10:13.372Z,97447.31
2023-08-13T09:12:41.713Z,97453.56
2023-08-13T09:15:10.295Z,97445.41
2023-08-13T09:17:38.247Z,97444.97
2023-08-13T09:20:11.418Z,97449.72
2023-08-13T09:22:39.276Z,97451.19
2023-08-13T09:25:10.839Z,97453.66
2023-08-13T09:27:38.610Z,97449.06
2023-08-13T09:30:09.045Z,97453.09
2023-08-13T09:32:37.553Z,97462.25
2023-08-13T09:35:05.549Z,97459.00
2023-08-13T09:44:38.352Z,97463.44
2023-08-13T09:47:07.255Z,97461.72
2023-08-13T09:49:35.322Z,97464.97
2023-08-13T09:52:05.616Z,97468.72
2023-08-13T09:54:34.766Z,97459.63
2023-08-13T09:57:53.726Z,97472.06
2023-08-13T10:03:57.298Z,97478.22
2023-08-13T10:06:25.143Z,97463.69
2023-08-13T10:08:54.111Z,97472.13
2023-08-13T10:11:23.620Z,97484.50
2023-08-13T10:13:52.732Z,97480.72
2023-08-13T10:16:20.577Z,97482.91
2023-08-13T10:18:48.436Z,97481.53
2023-08-13T10:21:16.197Z,97486.13
2023-08-13T10:23:43.908Z,97488.28
2023-08-13T10:26:11.579Z,97499.63
2023-08-13T10:28:39.305Z,97508.25
2023-08-13T10:31:32.489Z,97515.81
2023-08-13T10:34:03.630Z,97520.13
2023-08-13T10:36:44.178Z,97527.09
2023-08-13T10:39:35.916Z,97532.50
2023-08-13T10:42:06.175Z,97523.09
2023-08-13T10:44:34.073Z,97521.97
2023-08-13T10:47:05.228Z,97523.06
2023-08-13T10:49:32.960Z,97520.69
2023-08-13T10:52:03.819Z,97515.28
2023-08-13T10:54:33.101Z,97516.88
2023-08-13T10:57:02.898Z,97524.66
2023-08-13T10:59:31.613Z,97518.19
2023-08-13T11:02:13.333Z,97505.50
2023-08-13T11:04:42.429Z,97503.84
2023-08-13T11:07:13.947Z,97522.81
2023-08-13T11:09:45.045Z,97518.50
2023-08-13T11:12:14.682Z,97517.97
2023-08-13T11:14:42.781Z,97520.34
2023-08-13T11:17:11.904Z,97520.91
2023-08-13T11:19:39.650Z,97525.50
2023-08-13T11:22:09.823Z,97522.75
2023-08-13T11:24:37.943Z,97519.44
2023-08-13T11:27:05.717Z,97525.34
2023-08-13T11:29:33.453Z,97530.28
2023-08-13T11:32:01.227Z,97539.16
2023-08-13T11:34:30.496Z,97535.69
2023-08-13T11:36:58.493Z,97541.09
2023-08-13T11:39:26.168Z,97537.50
2023-08-13T11:41:53.864Z,97541.25
2023-08-13T11:48:16.083Z,97546.28
2023-08-13T11:50:47.876Z,97550.59
2023-08-13T11:53:15.903Z,97557.09
2023-08-13T11:55:45.007Z,97561.94
2023-08-13T11:58:12.789Z,97551.63
2023-08-13T12:00:40.446Z,97558.13
2023-08-13T12:03:08.223Z,97549.97
2023-08-13T12:05:36.979Z,97549.34
2023-08-13T12:08:08.106Z,97549.28
2023-08-13T12:10:36.137Z,97562.53
2023-08-13T12:13:04.030Z,97558.75
2023-08-13T12:15:39.942Z,97568.16
2023-08-13T12:18:08.101Z,97570.59
2023-08-13T12:20:35.891Z,97575.84
2023-08-13T12:23:08.983Z,97566.13
2023-08-13T12:25:37.967Z,97580.59
2023-08-13T12:28:06.014Z,97574.91
2023-08-13T12:30:33.635Z,97571.53
2023-08-13T12:33:01.547Z,97573.16
2023-08-13T12:35:32.168Z,97574.34
2023-08-13T12:37:59.955Z,97573.47
2023-08-13T12:40:28.828Z,97580.38
2023-08-13T12:43:42.668Z,97578.09
2023-08-13T12:46:15.808Z,97579.47
2023-08-13T12:48:43.560Z,97581.25
2023-08-13T12:51:11.616Z,97580.22
2023-08-13T12:53:39.224Z,97578.00
2023-08-13T12:56:06.930Z,97580.22
2023-08-13T12:58:35.280Z,97572.72
2023-08-13T13:01:04.188Z,97570.09
2023-08-13T13:03:33.219Z,97570.50
2023-08-13T13:06:01.231Z,97571.09
2023-08-13T13:08:28.894Z,97566.59
2023-08-13T13:10:56.612Z,97562.09
2023-08-13T13:13:25.388Z,97559.41
2023-08-13T13:15:53.124Z,97566.31
2023-08-13T13:18:20.740Z,97560.41
2023-08-13T13:20:55.885Z,97562.56
2023-08-13T13:23:26.233Z,97552.91
2023-08-13T13:29:53.903Z,97541.97
2023-08-13T13:32:21.782Z,97556.66
2023-08-13T13:34:49.437Z,97551.66
2023-08-13T13:37:21.570Z,97549.41
2023-08-13T13:39:49.261Z,97536.31
2023-08-13T13:42:17.103Z,97535.69
2023-08-13T13:44:47.648Z,97534.06
2023-08-13T13:47:15.271Z,97528.47
2023-08-13T13:49:43.062Z,97528.47
2023-08-13T13:52:13.121Z,97525.75
2023-08-13T13:54:43.234Z,97531.56
2023-08-13T13:57:10.963Z,97526.81
2023-08-13T13:59:38.596Z,97523.84
2023-08-13T14:02:06.397Z,97524.41
2023-08-13T14:04:34.333Z,97521.91
2023-08-13T14:07:02.013Z,97533.47
2023-08-13T14:09:29.801Z,97533.63
2023-08-13T14:11:58.901Z,97533.00
2023-08-13T14:14:26.556Z,97527.50
2023-08-13T14:16:54.179Z,97523.13
2023-08-13T14:19:21.927Z,97518.03
2023-08-13T14:21:49.561Z,97524.16
2023-08-13T14:24:18.250Z,97516.25
2023-08-13T14:26:46.151Z,97530.97
2023-08-13T14:29:15.296Z,97520.84
2023-08-13T14:31:43.042Z,97524.22
2023-08-13T14:34:10.688Z,97518.88
2023-08-13T14:36:38.479Z,97510.97
2023-08-13T14:39:06.396Z,97516.25
2023-08-13T14:41:34.664Z,97513.16
2023-08-13T14:44:02.479Z,97512.00
2023-08-13T14:46:32.420Z,97519.06
2023-08-13T14:49:00.194Z,97514.28
2023-08-13T14:51:27.853Z,97509.50
2023-08-13T14:53:55.894Z,97513.84
2023-08-13T14:56:23.707Z,97514.31
2023-08-13T14:58:51.540Z,97513.75
2023-08-13T15:01:19.925Z,97504.75
2023-08-13T15:03:49.069Z,97502.34
2023-08-13T15:06:17.034Z,97511.63
2023-08-13T15:08:45.303Z,97506.38
2023-08-13T15:11:12.902Z,97498.34
2023-08-13T15:13:40.873Z,97505.31
2023-08-13T15:16:08.507Z,97507.25
2023-08-13T15:18:36.245Z,97507.25
2023-08-13T15:21:07.526Z,97497.13
2023-08-13T15:23:40.280Z,97497.50
2023-08-13T15:26:07.986Z,97494.84
2023-08-13T15:28:37.065Z,97498.78
2023-08-13T15:31:06.364Z,97491.44
2023-08-13T15:33:34.087Z,97488.69
2023-08-13T15:36:03.487Z,97485.41
2023-08-13T15:38:32.566Z,97484.81
2023-08-13T15:41:00.479Z,97486.31
2023-08-13T15:43:28.427Z,97503.69
2023-08-13T15:45:56.234Z,97494.66
2023-08-13T15:48:24.144Z,97493.78
2023-08-13T15:50:51.780Z,97496.16
2023-08-13T15:53:19.599Z,97491.59
2023-08-13T15:55:48.785Z,97497.47
2023-08-13T15:58:16.469Z,97499.97
2023-08-13T16:00:44.248Z,97486.19
2023-08-13T16:03:12.546Z,97487.88
2023-08-13T16:05:40.404Z,97493.78
2023-08-13T16:08:09.653Z,97490.06
2023-08-13T16:10:37.778Z,97493.63
2023-08-13T16:13:06.809Z,97501.97
2023-08-13T16:15:34.632Z,97494.66
2023-08-13T16:18:04.304Z,97484.34
2023-08-13T16:20:32.183Z,97481.38
2023-08-13T16:23:00.375Z,97482.06
2023-08-13T16:25:28.315Z,97486.66
2023-08-13T16:27:58.188Z,97480.63
2023-08-13T16:30:29.839Z,97473.41
2023-08-13T16:32:57.778Z,97475.00
2023-08-13T16:35:30.372Z,97484.16
2023-08-13T16:37:59.245Z,97485.06
2023-08-13T16:40:27.310Z,97490.13
2023-08-13T16:43:08.109Z,97479.31
2023-08-13T16:45:40.530Z,97490.41
2023-08-13T16:48:08.408Z,97482.81
2023-08-13T16:50:36.158Z,97480.34
2023-08-13T16:53:03.983Z,97476.53
2023-08-13T16:55:34.842Z,97477.16
2023-08-13T16:58:02.735Z,97478.22
2023-08-13T17:00:30.407Z,97480.41
2023-08-13T17:03:07.003Z,97471.22
2023-08-13T17:05:34.772Z,97471.13
2023-08-13T17:08:02.764Z,97471.91
2023-08-13T17:10:35.755Z,97463.84
2023-08-13T17:13:03.669Z,97466.06
2023-08-13T17:15:31.797Z,97459.19
2023-08-13T17:18:01.954Z,97461.50
2023-08-13T17:20:49.874Z,97457.00
2023-08-13T17:23:23.305Z,97455.28
2023-08-13T17:25:51.333Z,97448.31
2023-08-13T17:28:19.105Z,97442.44
2023-08-13T17:30:47.033Z,97441.09
2023-08-13T17:33:17.539Z,97435.16
2023-08-13T17:35:45.450Z,97445.66
2023-08-13T17:38:13.282Z,97444.06
2023-08-13T17:40:42.409Z,97445.13
2023-08-13T17:43:10.018Z,97458.59
2023-08-13T17:45:41.086Z,97456.41
2023-08-13T17:48:09.827Z,97449.97
2023-08-13T17:50:37.683Z,97460.44
2023-08-13T17:53:05.525Z,97458.59
2023-08-13T17:55:33.238Z,97461.03
2023-08-13T17:58:02.445Z,97469.97
2023-08-13T18:00:30.470Z,97462.41
2023-08-13T18:02:58.452Z,97460.78
2023-08-13T18:05:26.405Z,97461.34
2023-08-13T18:08:04.330Z,97464.28
2023-08-13T18:10:40.117Z,97459.19
2023-08-13T18:13:09.419Z,97456.22
2023-08-13T18:15:38.409Z,97451.66
2023-08-13T18:18:07.168Z,97442.47
2023-08-13T18:20:35.218Z,97442.47
2023-08-13T18:23:03.101Z,97441.94
2023-08-13T18:25:31.520Z,97443.78
2023-08-13T18:28:02.346Z,97441.59
2023-08-13T18:30:34.138Z,97442.91
2023-08-13T18:33:03.621Z,97438.44
2023-08-13T18:35:32.018Z,97432.16
2023-08-13T18:38:01.540Z,97435.75
2023-08-13T18:40:30.500Z,97443.88
2023-08-13T18:43:03.946Z,97461.13
2023-08-13T18:45:38.092Z,97472.16
2023-08-13T18:48:08.015Z,97482.03
2023-08-13T18:50:35.891Z,97457.03
2023-08-13T18:53:03.882Z,97453.38
2023-08-13T18:55:32.408Z,97459.19
2023-08-13T18:58:02.958Z,97460.94
2023-08-13T19:00:30.913Z,97462.47
2023-08-13T19:03:01.276Z,97455.44
2023-08-13T19:05:30.912Z,97454.22
2023-08-13T19:07:59.037Z,97454.34
2023-08-13T19:10:28.108Z,97443.22
2023-08-13T19:12:55.926Z,97447.78
2023-08-13T19:15:26.148Z,97447.03
2023-08-13T19:17:53.909Z,97448.97
2023-08-13T19:20:23.038Z,97441.59
2023-08-13T19:22:50.911Z,97433.28
2023-08-13T19:25:18.735Z,97403.75
2023-08-13T19:27:46.425Z,97398.63
2023-08-13T19:30:14.400Z,97361.31
2023-08-13T19:32:42.202Z,97330.53
2023-08-13T19:35:12.362Z,97339.53
2023-08-13T19:37:44.514Z,97343.06
2023-08-13T19:40:12.982Z,97344.09
2023-08-13T19:42:40.770Z,97351.94
2023-08-13T19:45:11.088Z,97339.84
2023-08-13T19:47:38.958Z,97341.97
2023-08-13T19:50:07.390Z,97347.03
2023-08-13T19:52:35.380Z,97332.19
2023-08-13T19:55:04.957Z,97341.38
2023-08-13T19:57:32.704Z,97341.34
2023-08-13T20:00:03.040Z,97343.09
2023-08-13T20:02:38.767Z,97333.47
2023-08-13T20:05:07.321Z,97333.03
2023-08-13T20:07:35.289Z,97328.63
2023-08-13T20:10:08.506Z,97331.19
2023-08-13T20:12:36.298Z,97337.06
2023-08-13T20:15:05.278Z,97346.44
2023-08-13T20:17:33.778Z,97341.59
2023-08-13T20:20:01.682Z,97342.66
2023-08-13T20:22:29.402Z,97348.59
2023-08-13T20:24:59.095Z,97351.66
2023-08-13T20:27:28.117Z,97357.25
2023-08-13T20:29:56.888Z,97354.50
2023-08-13T20:32:26.560Z,97362.47
2023-08-13T20:34:54.313Z,97360.84
2023-08-13T20:37:24.849Z,97365.09
2023-08-13T20:39:52.496Z,97369.47
2023-08-13T20:42:20.305Z,97369.16
2023-08-13T20:44:49.415Z,97366.06
2023-08-13T20:47:18.264Z,97368.59
2023-08-13T20:49:46.044Z,97365.03
2023-08-13T20:52:13.709Z,97379.63
2023-08-13T20:54:41.427Z,97375.75
2023-08-13T20:57:09.081Z,97359.59
2023-08-13T20:59:36.720Z,97367.16
2023-08-13T21:02:05.876Z,97370.09
2023-08-13T21:04:33.558Z,97385.03
2023-08-13T21:07:01.391Z,97386.34
2023-08-13T21:09:29.883Z,97376.00
2023-08-13T21:11:57.665Z,97379.06
2023-08-13T21:14:25.460Z,97381.72
2023-08-13T21:16:53.202Z,97380.41
2023-08-13T21:19:22.401Z,97378.06
2023-08-13T21:21:50.050Z,97385.84
2023-08-13T21:24:17.896Z,97386.41
2023-08-13T21:26:46.582Z,97384.75
2023-08-13T21:29:14.276Z,97388.13
2023-08-13T21:31:41.966Z,97385.47
2023-08-13T21:34:09.649Z,97378.69
2023-08-13T21:36:38.706Z,97374.63
2023-08-13T21:39:07.847Z,97372.91
2023-08-13T21:41:35.547Z,97383.31
2023-08-13T21:44:03.162Z,97379.88
2023-08-13T21:46:30.864Z,97377.81
2023-08-13T21:48:58.591Z,97388.66
2023-08-13T21:51:26.433Z,97386.09
2023-08-13T21:53:55.461Z,97389.78
2023-08-13T21:56:23.124Z,97389.38
2023-08-13T21:58:50.752Z,97389.91
2023-08-13T22:01:18.620Z,97394.00
2023-08-13T22:03:46.559Z,97382.28
2023-08-13T22:06:14.274Z,97388.47
2023-08-13T22:08:41.930Z,97386.66
2023-08-13T22:11:11.072Z,97395.72
2023-08-13T22:13:38.745Z,97397.53
2023-08-13T22:16:06.517Z,97409.06
2023-08-13T22:18:34.191Z,97412.00
2023-08-13T22:21:02.026Z,97419.63
2023-08-13T22:23:29.873Z,97418.72
2023-08-13T22:26:05.274Z,97407.31
2023-08-13T22:28:44.848Z,97411.91
2023-08-13T22:31:12.610Z,97421.59
2023-08-13T22:33:40.265Z,97423.56
2023-08-13T22:36:07.916Z,97427.59
2023-08-13T22:38:35.604Z,97432.91
2023-08-13T22:41:03.234Z,97427.03
2023-08-13T22:43:30.957Z,97428.56
2023-08-13T22:46:01.130Z,97422.09
2023-08-13T22:48:28.849Z,97433.28
2023-08-13T22:50:56.474Z,97422.34
2023-08-13T22:53:24.253Z,97429.00
2023-08-13T22:55:52.023Z,97428.66
2023-08-13T22:58:19.676Z,97426.84
2023-08-13T23:00:47.340Z,97431.00
2023-08-13T23:03:16.779Z,97434.69
2023-08-13T23:05:47.152Z,97433.97
2023-08-13T23:08:17.928Z,97434.78
2023-08-13T23:10:45.815Z,97437.75
2023-08-13T23:13:16.221Z,97432.13
2023-08-13T23:15:44.006Z,97427.72
2023-08-13T23:18:12.169Z,97434.38
2023-08-13T23:20:41.298Z,97429.00
2023-08-13T23:23:09.005Z,97435.59
2023-08-13T23:25:36.660Z,97430.91
2023-08-13T23:28:04.566Z,97438.94
2023-08-13T23:30:32.315Z,97441.66
2023-08-13T23:33:01.234Z,97441.13
2023-08-13T23:35:28.911Z,97445.91
2023-08-13T23:37:59.172Z,97430.13
2023-08-13T23:40:26.867Z,97427.47
2023-08-13T23:42:54.692Z,97424.81
2023-08-13T23:45:23.063Z,97424.97
2023-08-13T23:47:50.887Z,97414.78
2023-08-13T23:50:18.671Z,97421.56
2023-08-13T23:52:46.368Z,97420.91
2023-08-13T23:55:17.300Z,97432.06
2023-08-13T23:57:45.210Z,97427.91
